createdAt,value
2022-09-25T00:01:06.647Z,48.00
2022-09-25T00:03:54.134Z,50.13
2022-09-25T00:06:42.211Z,48.90
2022-09-25T00:09:29.552Z,39.92
2022-09-25T00:12:16.581Z,46.28
2022-09-25T00:15:05.116Z,43.78
2022-09-25T00:17:52.598Z,47.33
2022-09-25T00:20:39.933Z,52.17
2022-09-25T00:23:27.019Z,54.85
2022-09-25T00:26:15.716Z,55.85
2022-09-25T00:29:04.157Z,51.88
2022-09-25T00:31:51.167Z,51.58
2022-09-25T00:34:41.737Z,53.22
2022-09-25T00:37:28.994Z,56.15
2022-09-25T00:40:16.179Z,57.30
2022-09-25T00:43:12.708Z,56.53
2022-09-25T00:46:02.767Z,51.30
2022-09-25T00:48:55.070Z,51.80
2022-09-25T00:51:59.639Z,50.65
2022-09-25T00:54:52.548Z,52.85
2022-09-25T00:57:45.982Z,62.40
2022-09-25T01:00:34.231Z,59.85
2022-09-25T01:03:24.256Z,64.78
2022-09-25T01:06:15.625Z,55.40
2022-09-25T01:09:07.838Z,79.00
2022-09-25T01:11:55.362Z,68.57
2022-09-25T01:14:43.365Z,66.93
2022-09-25T01:17:40.781Z,47.13
2022-09-25T01:20:39.904Z,48.17
2022-09-25T01:23:38.099Z,44.80
2022-09-25T01:27:02.459Z,44.40
2022-09-25T01:29:54.185Z,41.53
2022-09-25T01:33:11.393Z,45.20
2022-09-25T01:36:18.132Z,44.35
2022-09-25T01:39:16.910Z,41.05
2022-09-25T01:42:18.035Z,40.38
2022-09-25T01:45:09.513Z,39.40
2022-09-25T01:47:59.755Z,40.00
2022-09-25T01:51:18.762Z,40.13
2022-09-25T01:54:12.563Z,37.92
2022-09-25T01:57:38.603Z,40.22
2022-09-25T02:00:28.494Z,39.75
2022-09-25T02:03:31.078Z,42.45
2022-09-25T02:06:20.859Z,37.25
2022-09-25T02:09:17.631Z,36.05
2022-09-25T02:12:34.308Z,37.05
2022-09-25T02:15:37.329Z,35.78
2022-09-25T02:21:48.977Z,37.10
2022-09-25T02:24:44.006Z,51.72
2022-09-25T02:27:31.059Z,51.95
2022-09-25T02:30:18.295Z,69.88
2022-09-25T02:33:05.382Z,68.35
2022-09-25T02:35:53.578Z,78.85
2022-09-25T02:38:40.623Z,85.75
2022-09-25T02:41:39.709Z,76.68
2022-09-25T02:44:59.611Z,93.75
2022-09-25T02:48:12.744Z,85.88
2022-09-25T02:54:01.523Z,50.38
2022-09-25T02:57:04.375Z,50.13
2022-09-25T03:02:52.158Z,46.65
2022-09-25T03:05:43.189Z,46.88
2022-09-25T03:08:41.593Z,45.55
2022-09-25T03:11:31.234Z,46.53
2022-09-25T03:14:20.857Z,45.67
2022-09-25T03:17:09.645Z,41.22
2022-09-25T03:19:56.884Z,41.33
2022-09-25T03:22:44.071Z,40.63
2022-09-25T03:25:31.103Z,38.97
2022-09-25T03:28:18.242Z,40.83
2022-09-25T03:31:10.863Z,40.03
2022-09-25T03:33:58.540Z,40.20
2022-09-25T03:36:47.574Z,38.70
2022-09-25T03:39:34.803Z,53.88
2022-09-25T03:42:21.874Z,74.00
2022-09-25T03:45:10.046Z,59.78
2022-09-25T03:47:57.063Z,119.38
2022-09-25T03:50:46.116Z,82.45
2022-09-25T03:53:35.902Z,52.42
2022-09-25T03:56:25.007Z,49.20
2022-09-25T03:59:12.427Z,55.55
2022-09-25T04:02:02.914Z,53.35
2022-09-25T04:04:50.426Z,53.33
2022-09-25T04:07:37.485Z,49.65
2022-09-25T04:10:24.486Z,44.60
2022-09-25T04:13:17.081Z,43.78
2022-09-25T04:16:09.198Z,41.75
2022-09-25T04:19:00.088Z,41.50
2022-09-25T04:21:49.848Z,37.53
2022-09-25T04:24:49.215Z,37.17
2022-09-25T04:27:36.811Z,34.33
2022-09-25T04:30:24.754Z,36.75
2022-09-25T04:33:30.421Z,34.90
2022-09-25T04:36:19.815Z,38.03
2022-09-25T04:39:09.793Z,38.85
2022-09-25T04:41:59.407Z,37.08
2022-09-25T04:44:46.457Z,38.42
2022-09-25T04:47:34.519Z,40.63
2022-09-25T04:50:24.364Z,38.33
2022-09-25T04:53:12.854Z,41.58
2022-09-25T04:56:13.859Z,42.45
2022-09-25T04:59:01.074Z,40.92
2022-09-25T05:01:50.495Z,42.47
2022-09-25T05:04:40.055Z,53.42
2022-09-25T05:07:27.255Z,47.00
2022-09-25T05:10:14.808Z,45.63
2022-09-25T05:13:05.263Z,45.83
2022-09-25T05:15:52.313Z,47.13
2022-09-25T05:18:39.439Z,46.38
2022-09-25T05:21:26.547Z,44.75
2022-09-25T05:24:15.980Z,45.30
2022-09-25T05:27:04.012Z,41.95
2022-09-25T05:29:53.952Z,38.58
2022-09-25T05:32:49.848Z,38.42
2022-09-25T05:35:37.230Z,38.25
2022-09-25T05:38:24.521Z,39.08
2022-09-25T05:41:14.048Z,41.17
2022-09-25T05:44:06.709Z,42.72
2022-09-25T05:46:56.523Z,41.08
2022-09-25T05:49:45.791Z,39.33
2022-09-25T05:52:33.170Z,42.17
2022-09-25T05:55:20.387Z,40.47
2022-09-25T05:58:10.280Z,43.80
2022-09-25T06:01:02.375Z,43.95
2022-09-25T06:03:54.068Z,40.72
2022-09-25T06:06:41.219Z,44.78
2022-09-25T06:09:28.328Z,44.72
2022-09-25T06:12:18.818Z,42.85
2022-09-25T06:15:06.491Z,39.22
2022-09-25T06:18:00.782Z,40.53
2022-09-25T06:20:51.446Z,42.90
2022-09-25T06:23:38.549Z,43.47
2022-09-25T06:26:28.870Z,45.90
2022-09-25T06:29:19.287Z,46.75
2022-09-25T06:32:11.146Z,47.17
2022-09-25T06:34:58.424Z,47.93
2022-09-25T06:37:48.851Z,47.78
2022-09-25T06:40:41.601Z,50.05
2022-09-25T06:43:30.469Z,49.58
2022-09-25T06:46:22.058Z,46.33
2022-09-25T06:49:13.236Z,47.15
2022-09-25T06:52:05.610Z,45.97
2022-09-25T06:54:52.701Z,45.00
2022-09-25T06:57:48.653Z,45.80
2022-09-25T07:00:39.209Z,45.05
2022-09-25T07:03:45.106Z,43.33
2022-09-25T07:06:34.769Z,45.25
2022-09-25T07:09:24.606Z,44.70
2022-09-25T07:12:11.740Z,44.92
2022-09-25T07:14:58.930Z,44.72
2022-09-25T07:17:49.371Z,44.30
2022-09-25T07:20:36.894Z,42.80
2022-09-25T07:23:25.329Z,44.20
2022-09-25T07:26:28.256Z,44.65
2022-09-25T07:32:04.760Z,40.13
2022-09-25T07:34:54.669Z,37.83
2022-09-25T07:37:49.073Z,35.10
2022-09-25T07:40:43.114Z,34.60
2022-09-25T07:43:30.196Z,34.40
2022-09-25T07:46:19.841Z,35.00
2022-09-25T07:49:07.008Z,33.47
2022-09-25T07:51:54.181Z,32.35
2022-09-25T07:54:43.336Z,31.13
2022-09-25T07:57:34.428Z,28.75
2022-09-25T08:00:23.780Z,26.30
2022-09-25T08:03:14.209Z,26.15
2022-09-25T08:06:05.987Z,24.50
2022-09-25T08:08:53.617Z,22.02
2022-09-25T08:11:40.982Z,20.45
2022-09-25T08:14:29.027Z,17.15
2022-09-25T08:17:19.610Z,17.13
2022-09-25T08:20:10.920Z,16.08
2022-09-25T08:23:00.821Z,13.98
2022-09-25T08:25:51.185Z,11.70
2022-09-25T08:28:38.289Z,12.00
2022-09-25T08:31:28.790Z,10.45
2022-09-25T08:34:39.521Z,10.40
2022-09-25T08:37:24.739Z,10.00
2022-09-25T08:40:31.167Z,9.85
2022-09-25T08:43:22.127Z,9.52
2022-09-25T08:46:39.205Z,9.35
2022-09-25T08:49:31.005Z,9.27
2022-09-25T08:52:21.577Z,8.43
2022-09-25T08:55:47.698Z,8.48
2022-09-25T08:58:43.407Z,8.55
2022-09-25T09:01:47.347Z,8.30
2022-09-25T09:04:47.486Z,9.90
2022-09-25T09:07:45.624Z,8.73
2022-09-25T09:10:37.910Z,8.23
2022-09-25T09:13:39.501Z,7.50
2022-09-25T09:16:26.537Z,8.00
2022-09-25T09:19:13.988Z,7.40
2022-09-25T09:22:11.022Z,6.50
2022-09-25T09:25:30.937Z,7.32
2022-09-25T09:28:40.917Z,7.07
2022-09-25T09:31:41.126Z,6.68
2022-09-25T09:34:53.096Z,6.43
2022-09-25T09:37:59.166Z,6.97
2022-09-25T09:40:58.278Z,8.02
2022-09-25T09:44:02.917Z,7.00
2022-09-25T09:47:05.409Z,6.28
2022-09-25T09:50:32.676Z,6.32
2022-09-25T09:53:59.603Z,6.72
2022-09-25T09:56:49.893Z,7.20
2022-09-25T10:00:04.945Z,7.10
2022-09-25T10:03:07.458Z,7.38
2022-09-25T10:06:02.449Z,9.23
2022-09-25T10:08:49.834Z,8.70
2022-09-25T10:11:37.611Z,8.15
2022-09-25T10:14:30.050Z,9.10
2022-09-25T10:17:19.599Z,7.25
2022-09-25T10:20:22.335Z,7.65
2022-09-25T10:23:39.910Z,7.10
2022-09-25T10:26:36.186Z,8.02
2022-09-25T10:29:23.271Z,8.57
2022-09-25T10:32:12.185Z,7.60
2022-09-25T10:35:04.219Z,7.50
2022-09-25T10:37:58.935Z,7.20
2022-09-25T10:40:56.961Z,7.43
2022-09-25T10:43:52.051Z,7.07
2022-09-25T10:46:58.047Z,6.93
2022-09-25T10:50:06.946Z,7.63
2022-09-25T10:52:59.158Z,7.72
2022-09-25T10:55:52.005Z,8.35
2022-09-25T10:58:48.178Z,8.68
2022-09-25T11:01:42.066Z,8.57
2022-09-25T11:04:32.086Z,8.32
2022-09-25T11:07:27.628Z,8.48
2022-09-25T11:10:37.729Z,8.55
2022-09-25T11:13:28.713Z,8.90
2022-09-25T11:16:16.678Z,9.15
2022-09-25T11:19:29.864Z,9.90
2022-09-25T11:25:25.325Z,7.40
2022-09-25T11:28:37.617Z,8.10
2022-09-25T11:31:34.725Z,8.27
2022-09-25T11:35:03.695Z,8.07
2022-09-25T11:38:09.707Z,8.85
2022-09-25T11:41:18.732Z,9.07
2022-09-25T11:44:24.212Z,8.70
2022-09-25T11:47:29.564Z,10.30
2022-09-25T11:50:20.302Z,8.38
2022-09-25T11:53:38.865Z,8.27
2022-09-25T11:56:50.173Z,8.80
2022-09-25T11:59:48.768Z,9.20
2022-09-25T12:03:07.834Z,9.23
2022-09-25T12:06:29.342Z,12.57
2022-09-25T12:09:54.870Z,14.45
2022-09-25T12:12:59.374Z,15.05
2022-09-25T12:16:12.041Z,15.27
2022-09-25T12:19:24.644Z,16.15
2022-09-25T12:22:23.000Z,15.82
2022-09-25T12:25:34.325Z,15.63
2022-09-25T12:28:32.332Z,17.20
2022-09-25T12:31:53.515Z,17.90
2022-09-25T12:34:56.811Z,18.58
2022-09-25T12:37:57.316Z,20.55
2022-09-25T12:40:55.614Z,22.75
2022-09-25T12:43:55.497Z,23.02
2022-09-25T12:46:49.521Z,22.17
2022-09-25T12:49:51.186Z,20.05
2022-09-25T12:52:47.148Z,19.50
2022-09-25T12:55:48.058Z,18.80
2022-09-25T12:59:00.712Z,17.88
2022-09-25T13:01:53.835Z,17.58
2022-09-25T13:05:23.491Z,16.33
2022-09-25T13:08:22.174Z,17.63
2022-09-25T13:11:18.678Z,15.43
2022-09-25T13:14:14.281Z,16.23
2022-09-25T13:17:03.959Z,14.45
2022-09-25T13:19:51.592Z,13.13
2022-09-25T13:22:41.524Z,14.57
2022-09-25T13:25:30.622Z,14.05
2022-09-25T13:28:26.519Z,16.30
2022-09-25T13:31:23.014Z,16.20
2022-09-25T13:34:16.471Z,15.60
2022-09-25T13:37:09.429Z,13.95
2022-09-25T13:40:15.729Z,13.38
2022-09-25T13:43:24.429Z,13.88
2022-09-25T13:46:14.988Z,13.15
2022-09-25T13:49:34.268Z,13.00
2022-09-25T13:52:40.714Z,11.85
2022-09-25T13:55:32.167Z,13.85
2022-09-25T13:58:23.701Z,13.38
2022-09-25T14:01:33.308Z,13.20
2022-09-25T14:04:25.206Z,15.13
2022-09-25T14:07:24.135Z,15.70
2022-09-25T14:10:12.757Z,14.25
2022-09-25T14:13:07.281Z,14.68
2022-09-25T14:16:01.872Z,15.48
2022-09-25T14:18:54.857Z,13.85
2022-09-25T14:21:48.425Z,14.02
2022-09-25T14:24:45.475Z,12.95
2022-09-25T14:27:32.838Z,13.55
2022-09-25T14:30:29.156Z,13.68
2022-09-25T14:33:19.498Z,12.13
2022-09-25T14:36:22.796Z,12.93
2022-09-25T14:39:54.187Z,11.77
2022-09-25T14:42:56.930Z,12.20
2022-09-25T14:45:50.295Z,11.32
2022-09-25T14:49:06.520Z,11.45
2022-09-25T14:52:03.262Z,11.85
2022-09-25T14:54:56.393Z,13.18
2022-09-25T14:57:43.753Z,14.02
2022-09-25T15:00:31.477Z,13.30
2022-09-25T15:03:22.496Z,14.73
2022-09-25T15:06:16.490Z,15.25
2022-09-25T15:09:28.315Z,15.15
2022-09-25T15:12:29.271Z,14.23
2022-09-25T15:15:21.683Z,14.65
2022-09-25T15:18:14.090Z,15.25
2022-09-25T15:21:03.772Z,14.00
2022-09-25T15:23:53.050Z,13.10
2022-09-25T15:26:52.376Z,13.02
2022-09-25T15:29:45.358Z,13.23
2022-09-25T15:32:43.163Z,11.23
2022-09-25T15:35:35.587Z,10.73
2022-09-25T15:38:33.596Z,9.48
2022-09-25T15:41:22.741Z,9.98
2022-09-25T15:44:19.195Z,9.27
2022-09-25T15:47:07.043Z,10.27
2022-09-25T15:49:56.844Z,10.75
2022-09-25T15:52:50.686Z,11.02
2022-09-25T15:55:40.431Z,10.93
2022-09-25T15:58:33.040Z,11.70
2022-09-25T16:01:47.872Z,11.52
2022-09-25T16:04:46.420Z,12.50
2022-09-25T16:07:37.095Z,13.05
2022-09-25T16:10:24.688Z,13.80
2022-09-25T16:13:28.133Z,14.38
2022-09-25T16:16:18.582Z,13.80
2022-09-25T16:19:27.990Z,15.68
2022-09-25T16:22:23.632Z,17.38
2022-09-25T16:25:26.450Z,16.65
2022-09-25T16:28:20.518Z,16.40
2022-09-25T16:31:13.009Z,18.42
2022-09-25T16:34:04.750Z,17.92
2022-09-25T16:37:00.206Z,17.00
2022-09-25T16:40:20.055Z,17.52
2022-09-25T16:43:29.401Z,17.08
2022-09-25T16:46:20.835Z,15.82
2022-09-25T16:49:08.429Z,16.38
2022-09-25T16:51:56.364Z,16.05
2022-09-25T16:54:43.663Z,15.82
2022-09-25T16:57:35.989Z,14.32
2022-09-25T17:00:29.944Z,12.50
2022-09-25T17:03:17.175Z,10.77
2022-09-25T17:06:05.411Z,10.07
2022-09-25T17:08:53.605Z,9.55
2022-09-25T17:11:44.397Z,8.57
2022-09-25T17:14:33.740Z,8.95
2022-09-25T17:17:22.103Z,8.65
2022-09-25T17:20:13.774Z,9.02
2022-09-25T17:23:07.068Z,9.00
2022-09-25T17:26:09.250Z,8.85
2022-09-25T17:28:56.622Z,9.18
2022-09-25T17:31:44.127Z,8.70
2022-09-25T17:34:31.632Z,8.35
2022-09-25T17:37:23.452Z,7.00
2022-09-25T17:40:10.638Z,6.97
2022-09-25T17:42:57.998Z,7.68
2022-09-25T17:45:51.267Z,7.88
2022-09-25T17:48:38.878Z,8.45
2022-09-25T17:51:29.894Z,9.48
2022-09-25T17:54:17.461Z,11.50
2022-09-25T17:57:07.826Z,12.85
2022-09-25T17:59:56.262Z,13.88
2022-09-25T18:02:43.531Z,15.63
2022-09-25T18:05:32.503Z,16.13
2022-09-25T18:08:25.563Z,15.82
2022-09-25T18:11:14.864Z,17.85
2022-09-25T18:14:04.367Z,18.63
2022-09-25T18:16:53.749Z,18.85
2022-09-25T18:20:02.464Z,19.27
2022-09-25T18:22:53.170Z,21.55
2022-09-25T18:25:41.694Z,20.30
2022-09-25T18:28:31.370Z,20.48
2022-09-25T18:31:19.277Z,22.80
2022-09-25T18:34:07.332Z,21.33
2022-09-25T18:36:54.817Z,21.58
2022-09-25T18:39:43.093Z,21.83
2022-09-25T18:42:30.454Z,20.77
2022-09-25T18:45:20.030Z,18.60
2022-09-25T18:48:07.457Z,17.23
2022-09-25T18:50:55.664Z,18.50
2022-09-25T18:53:43.496Z,17.52
2022-09-25T18:56:31.853Z,19.17
2022-09-25T18:59:19.083Z,20.23
2022-09-25T19:02:14.939Z,19.48
2022-09-25T19:05:02.126Z,17.50
2022-09-25T19:07:49.597Z,18.02
2022-09-25T19:10:39.051Z,19.02
2022-09-25T19:13:27.611Z,18.30
2022-09-25T19:16:17.600Z,17.40
2022-09-25T19:19:07.907Z,18.10
2022-09-25T19:21:55.732Z,17.70
2022-09-25T19:24:43.835Z,17.60
2022-09-25T19:27:34.127Z,17.58
2022-09-25T19:30:24.492Z,17.55
2022-09-25T19:33:20.035Z,16.85
2022-09-25T19:36:11.291Z,19.13
2022-09-25T19:39:02.258Z,18.77
2022-09-25T19:41:50.198Z,20.38
2022-09-25T19:44:37.408Z,20.75
2022-09-25T19:47:24.516Z,18.48
2022-09-25T19:50:18.664Z,19.50
2022-09-25T19:53:05.841Z,19.60
2022-09-25T19:55:54.726Z,20.50
2022-09-25T19:58:44.866Z,21.10
2022-09-25T20:01:35.156Z,22.42
2022-09-25T20:04:22.343Z,22.00
2022-09-25T20:07:13.935Z,23.90
2022-09-25T20:10:03.150Z,23.55
2022-09-25T20:12:52.724Z,25.30
2022-09-25T20:15:45.701Z,23.85
2022-09-25T20:18:37.772Z,23.67
2022-09-25T20:21:30.187Z,24.92
2022-09-25T20:24:20.642Z,24.77
2022-09-25T20:27:10.122Z,25.65
2022-09-25T20:29:57.434Z,24.65
2022-09-25T20:32:47.078Z,26.02
2022-09-25T20:35:34.647Z,24.55
2022-09-25T20:38:21.978Z,24.17
2022-09-25T20:41:15.814Z,24.92
2022-09-25T20:44:04.148Z,24.10
2022-09-25T20:46:55.867Z,23.70
2022-09-25T20:49:43.819Z,23.83
2022-09-25T20:52:37.571Z,21.73
2022-09-25T20:55:25.023Z,21.83
2022-09-25T20:58:14.439Z,21.25
2022-09-25T21:01:14.562Z,21.38
2022-09-25T21:04:03.516Z,20.67
2022-09-25T21:06:50.822Z,20.67
2022-09-25T21:09:38.005Z,22.90
2022-09-25T21:12:28.544Z,23.00
2022-09-25T21:15:15.756Z,22.98
2022-09-25T21:18:07.300Z,22.35
2022-09-25T21:21:02.561Z,22.40
2022-09-25T21:23:54.238Z,21.20
2022-09-25T21:26:42.078Z,22.52
2022-09-25T21:29:32.006Z,21.75
2022-09-25T21:32:19.294Z,21.52
2022-09-25T21:35:09.999Z,22.48
2022-09-25T21:37:57.257Z,22.42
2022-09-25T21:40:44.505Z,21.90
2022-09-25T21:43:35.148Z,22.15
2022-09-25T21:46:23.103Z,21.20
2022-09-25T21:49:18.592Z,21.52
2022-09-25T21:52:05.822Z,21.23
2022-09-25T21:54:55.670Z,21.70
2022-09-25T21:57:42.901Z,21.40
2022-09-25T22:00:30.026Z,20.95
2022-09-25T22:03:17.169Z,20.27
2022-09-25T22:06:07.232Z,20.38
2022-09-25T22:08:56.938Z,19.75
2022-09-25T22:11:47.899Z,20.38
2022-09-25T22:14:35.125Z,19.48
2022-09-25T22:17:22.389Z,20.42
2022-09-25T22:20:11.162Z,21.02
2022-09-25T22:23:00.359Z,22.02
2022-09-25T22:25:47.910Z,20.92
2022-09-25T22:28:38.349Z,21.60
2022-09-25T22:31:30.424Z,22.05
2022-09-25T22:34:28.404Z,22.23
2022-09-25T22:37:15.450Z,24.13
2022-09-25T22:40:02.675Z,24.90
2022-09-25T22:42:49.767Z,24.35
2022-09-25T22:45:39.264Z,24.77
2022-09-25T22:48:29.349Z,24.95
2022-09-25T22:51:18.837Z,23.95
2022-09-25T22:54:06.178Z,23.60
2022-09-25T22:56:55.823Z,23.67
2022-09-25T22:59:45.343Z,24.75
2022-09-25T23:02:35.048Z,22.17
2022-09-25T23:05:22.251Z,22.88
2022-09-25T23:08:09.662Z,24.73
2022-09-25T23:11:07.056Z,24.38
2022-09-25T23:14:07.724Z,25.30
2022-09-25T23:16:55.142Z,24.73
2022-09-25T23:19:42.355Z,25.10
2022-09-25T23:22:31.728Z,25.38
2022-09-25T23:25:18.933Z,25.58
2022-09-25T23:28:08.278Z,24.98
2022-09-25T23:30:56.489Z,25.33
2022-09-25T23:33:44.335Z,26.52
2022-09-25T23:36:35.817Z,26.92
2022-09-25T23:39:22.795Z,26.50
2022-09-25T23:42:12.477Z,25.08
2022-09-25T23:45:01.712Z,26.63
2022-09-25T23:47:48.791Z,25.75
2022-09-25T23:50:35.804Z,25.90
2022-09-25T23:53:22.866Z,24.98
2022-09-25T23:56:12.887Z,25.10
2022-09-25T23:59:01.556Z,24.42
